Airfield :
LOGIN :

Register | Disclaimer

   EN    FR    IT 

 










Legend :    VFR   Marginal VFR   IFR   Intensive IFR   Very Intensive IFR
Visi :
Ceiling :
>= 8 km
>= 3000ft
5 to 8 km
1000 to 3000 ft
1500m to 5 km
500 to 1000 ft
800 to 1500m
200 to 500 ft
< 800m
< 200 ft
Symbols :   Thunderstorms  Fog  Heavy snow  Heavy precipitations  Wind > 20 kt
SIGMETs :     Misc.  Thunderstorms  Icing  Turbulence  Mountain Waves  Volcanic Ashes







- Airport Elevation : 11444 ft


LIMH - Pian Rosa

CURRENT METAR :
  • 212255Z VRB09G20KT 0300 -SN FZFG VV/// M01/M01 Q1028 RMK MON INVIS VAL INVIS VIS MIN 0300

EXPIRED METARs :
  • 212155Z VRB12G23KT 0800 -SN FZFG VV/// 00/M01 Q1028 RMK MON INVIS VAL INVIS VIS MIN 0800
  • 212055Z 21009KT 150V290 9999 -SN OVC025 00/M01 Q1029 RMK OVC MON CLD SCT VAL CLD SCT VIS MIN 9999

TAF N/A
No reported NOTAMs for that airfield.



MET'MAP, your aeronautical weather chart ! - Copyright ORBIFLY December 2007 - Disclaimer

ORBIFLY MET'MAP TEAM :

Programming & Development : Alexandra Zaïnal
Concept & Development : Baudouin d'Aumeries
Co-Development & Prog : Marc-Olivier Méhu
Technical & hardware support : Manuel Goepfert

Contact : metmap@orbifly.com




SOURCES & CREDITS :

   NOAA